Pagrindinis puslapis
METAR-TAF:

METAR-TAF

Oro uostai :

Mauricijus, Mauricijus

platuma: 20-26S, ilguma: 057-40E, Aukštis: 55 m

Dabartinis oras

Ataskaita buvo paskelbta 34 minutes, ne 20:00 UTC
Ramus vėjas
Temperatūra 21°C
Drėgmė 83%
Slėgis 1020 hPa
Matomumas 10 km arba daugiau
Išsisklaidę debesys ne aukštis 1700 ft
Išsisklaidę debesys ne aukštis 5000 ft

METAR: FIMP 172000Z 00000KT 9999 SCT017 SCT050 21/18 Q1020

Laikas: 00:34 (20:34 UTC)

Prognozė

Ataskaita buvo paskelbta 3 valandos ir 14 minutes, ne 17:20 UTC
Prognozė galioja nuo 17 metu 18 UTC su 19 metu 00 UTC
Vėjas 8 kt iš Rytų/Pietryčių
Matomumas 10 km arba daugiau
Išsisklaidę debesys ne aukštis 1700 ft
Laikinai
nuo 18 metu 00 UTC su 18 metu 06 UTC
Matomumas: 7000 m
Su prošvaistėmis ne aukštis 1500 ft
lietus

TAF: FIMP 171720Z 1718/1900 12008KT 9999 SCT017 TEMPO 1800/1806 7000 -SHRA BKN015

Orai ataskaitas ir orų prognozės (METAR, TAF).

turimą stotys yra geltonos ir raudonos taškus žemėlapyje.

Perkelti pele per norėdami pamatyti stoties vardą.

Tada spustelėkite, norėdami matyti oro stebėjimo ir prognozės.

Norėdami pakeisti žemėlapį: spustelėkite ant žalios mygtukų su juodo kryžiaus žemyn,; žalią mygtuką su brūkšneliu, jei norite nutolinti; arba žalių rodyklių gretimoms žemėlapius.


METAR-TAF: